Time;durP1;ratioP1;P1;durP2;ratioP2;P2;SDS_P1;SDS_P2;PMS_P1;PMS_P2;Temp;Humidity;BMP_temperature;BMP_pressure;BME280_temperature;BME280_humidity;BME280_pressure;Samples;Min_cycle;Max_cycle;Signal;HPM_P1;HPM_P2
2021/07/06 00:02:13;;;;;;;16.37;7.13;;;20.40;62.10;;;;;;5006784;28;20031;-93
2021/07/06 00:04:38;;;;;;;10.65;7.40;;;20.40;62.20;;;;;;5004405;28;20519;-91
2021/07/06 00:07:04;;;;;;;14.95;7.65;;;20.40;62.30;;;;;;4997311;28;20033;-93
2021/07/06 00:09:30;;;;;;;14.25;7.40;;;20.40;62.30;;;;;;4993413;28;20023;-91
2021/07/06 00:11:56;;;;;;;15.70;8.65;;;20.30;62.50;;;;;;4990967;28;20049;-93
2021/07/06 00:14:23;;;;;;;14.10;8.23;;;20.30;62.90;;;;;;5005445;28;20037;-91
2021/07/06 00:16:49;;;;;;;11.60;7.45;;;20.20;63.10;;;;;;4999599;28;20037;-90
2021/07/06 00:19:15;;;;;;;12.57;7.25;;;20.10;63.30;;;;;;5007950;28;20030;-92
2021/07/06 00:21:41;;;;;;;12.13;7.60;;;20.10;63.70;;;;;;5011465;28;20042;-87
2021/07/06 00:24:07;;;;;;;15.15;7.88;;;20.00;63.80;;;;;;5001176;28;20053;-92
2021/07/06 00:26:33;;;;;;;12.38;7.82;;;20.00;64.00;;;;;;4997987;28;20026;-90
2021/07/06 00:28:59;;;;;;;11.18;7.93;;;20.00;64.30;;;;;;4992709;28;20022;-91
2021/07/06 00:31:26;;;;;;;12.07;8.05;;;19.90;64.40;;;;;;5008865;28;20096;-91
2021/07/06 00:33:52;;;;;;;13.25;7.40;;;19.90;65.20;;;;;;4999626;28;20022;-90
2021/07/06 00:36:18;;;;;;;13.25;7.50;;;19.80;64.90;;;;;;4986650;28;20432;-92
2021/07/06 00:38:44;;;;;;;17.05;8.30;;;19.80;65.00;;;;;;4990461;28;20038;-93
2021/07/06 00:41:10;;;;;;;13.07;7.72;;;19.70;65.20;;;;;;4986096;28;20033;-91
2021/07/06 00:43:37;;;;;;;12.55;7.93;;;19.70;65.30;;;;;;4996915;28;20086;-91
2021/07/06 00:46:04;;;;;;;11.93;7.65;;;19.60;65.50;;;;;;5000537;28;20073;-93
2021/07/06 00:48:30;;;;;;;;;;;19.60;65.70;;;;;;5006056;28;20057;-90
2021/07/06 00:50:57;;;;;;;12.15;7.35;;;19.50;65.00;;;;;;5007182;28;19929;-90
2021/07/06 00:53:23;;;;;;;14.95;7.72;;;19.60;65.90;;;;;;4999962;28;20022;-91
2021/07/06 00:55:51;;;;;;;12.48;7.78;;;19.60;65.80;;;;;;4986852;28;20088;-92
2021/07/06 00:58:18;;;;;;;12.32;8.18;;;19.60;65.70;;;;;;4997364;28;20018;-89
2021/07/06 01:00:44;;;;;;;16.40;7.93;;;19.60;65.80;;;;;;4996227;28;20030;-91
2021/07/06 01:03:10;;;;;;;15.38;8.25;;;19.60;65.80;;;;;;4977959;28;20097;-90
2021/07/06 01:05:38;;;;;;;18.05;8.00;;;19.60;66.00;;;;;;4989592;28;20118;-93
2021/07/06 01:08:06;;;;;;;10.65;7.93;;;19.60;66.30;;;;;;4996474;28;20033;-91
2021/07/06 01:10:32;;;;;;;14.52;8.07;;;19.50;66.50;;;;;;4990812;28;20029;-92
2021/07/06 01:12:59;;;;;;;17.05;9.13;;;19.50;66.60;;;;;;4983921;28;20121;-90
2021/07/06 01:15:31;;;;;;;11.85;8.30;;;19.40;66.70;;;;;;4991661;28;20098;-90
2021/07/06 01:18:17;;;;;;;11.15;7.72;;;19.40;66.90;;;;;;4994877;28;20026;-90
2021/07/06 01:20:51;;;;;;;14.13;7.95;;;19.40;67.00;;;;;;4991214;28;20099;-90
2021/07/06 01:23:21;;;;;;;12.65;8.05;;;19.50;67.20;;;;;;4996655;28;20037;-89
2021/07/06 01:25:49;;;;;;;10.68;8.32;;;19.40;67.00;;;;;;4996926;28;20035;-92
2021/07/06 01:28:14;;;;;;;12.63;8.13;;;19.40;67.30;;;;;;4996686;28;20101;-90
2021/07/06 01:30:40;;;;;;;10.63;8.45;;;19.40;67.40;;;;;;4995627;28;20436;-92
2021/07/06 01:33:07;;;;;;;11.90;7.22;;;19.40;67.50;;;;;;4997102;28;20030;-91
2021/07/06 01:35:32;;;;;;;9.15;7.88;;;19.50;67.60;;;;;;5000648;28;20105;-91
2021/07/06 01:38:04;;;;;;;12.45;7.35;;;19.50;67.50;;;;;;4998903;28;20466;-91
2021/07/06 01:40:30;;;;;;;10.70;8.05;;;19.50;67.50;;;;;;5005884;28;20033;-89
2021/07/06 01:42:57;;;;;;;12.35;8.32;;;19.60;67.30;;;;;;5005903;28;20056;-90
2021/07/06 01:45:25;;;;;;;12.60;8.05;;;19.60;67.10;;;;;;5001804;28;20014;-91
2021/07/06 01:47:53;;;;;;;10.20;7.93;;;19.60;67.30;;;;;;4990341;28;20055;-91
2021/07/06 01:50:28;;;;;;;12.80;8.63;;;19.60;67.40;;;;;;4988047;28;20077;-91
2021/07/06 01:52:56;;;;;;;11.75;7.43;;;19.70;67.50;;;;;;4995635;28;20125;-92
2021/07/06 01:55:26;;;;;;;13.15;8.60;;;19.70;67.40;;;;;;4997606;28;20022;-90
2021/07/06 01:57:53;;;;;;;9.02;7.45;;;19.70;67.50;;;;;;4996990;28;20027;-88
2021/07/06 02:00:22;;;;;;;12.63;8.38;;;19.70;67.50;;;;;;4995349;28;20357;-89
2021/07/06 02:02:49;;;;;;;12.77;8.77;;;19.70;67.40;;;;;;4994801;28;20030;-88
2021/07/06 02:05:18;;;;;;;16.55;8.63;;;19.70;67.20;;;;;;4996585;28;20109;-88
2021/07/06 02:07:47;;;;;;;15.95;8.20;;;19.70;67.50;;;;;;4995220;28;20286;-88
2021/07/06 02:10:14;;;;;;;12.25;7.60;;;19.70;67.70;;;;;;4995984;28;20041;-89
2021/07/06 02:12:41;;;;;;;16.83;8.88;;;19.80;68.00;;;;;;4996887;28;20046;-87
2021/07/06 02:15:10;;;;;;;13.20;7.97;;;19.80;68.10;;;;;;5001534;28;20047;-89
2021/07/06 02:17:36;;;;;;;11.98;9.13;;;19.90;67.70;;;;;;4988151;28;20026;-87
2021/07/06 02:20:05;;;;;;;13.55;9.00;;;19.90;67.30;;;;;;4999504;28;20022;-87
2021/07/06 02:22:31;;;;;;;11.98;8.38;;;20.00;67.60;;;;;;5010874;28;20034;-86
2021/07/06 02:24:57;;;;;;;13.50;8.20;;;20.10;67.10;;;;;;5016971;28;20029;-88
2021/07/06 02:27:23;;;;;;;15.27;7.95;;;20.20;66.90;;;;;;5018164;28;20050;-89
2021/07/06 02:29:48;;;;;;;15.30;8.35;;;20.20;66.30;;;;;;5004717;28;20049;-89
2021/07/06 02:32:14;;;;;;;11.98;8.23;;;20.20;66.20;;;;;;4993944;28;20030;-90
2021/07/06 02:34:40;;;;;;;15.70;8.00;;;20.20;66.20;;;;;;5005292;28;20026;-90
2021/07/06 02:37:06;;;;;;;11.90;8.00;;;20.20;66.40;;;;;;5001277;28;20022;-93
2021/07/06 02:39:31;;;;;;;12.57;8.50;;;20.20;66.40;;;;;;5000002;28;20113;-88
2021/07/06 02:41:57;;;;;;;13.38;7.78;;;20.20;66.60;;;;;;4997788;28;20038;-91
2021/07/06 02:44:23;;;;;;;11.88;8.70;;;20.20;66.60;;;;;;4987700;28;20551;-90
2021/07/06 02:46:49;;;;;;;17.05;8.52;;;20.20;66.50;;;;;;4999651;28;20031;-89
2021/07/06 02:49:15;;;;;;;12.65;8.77;;;20.30;66.20;;;;;;4999233;28;20018;-93
2021/07/06 02:51:40;;;;;;;13.77;8.52;;;20.40;66.40;;;;;;5000552;28;20023;-92
2021/07/06 02:54:06;;;;;;;11.05;8.35;;;20.40;66.10;;;;;;4987943;28;20033;-91
2021/07/06 02:56:32;;;;;;;17.50;8.35;;;20.50;65.70;;;;;;5002410;28;20030;-92
2021/07/06 02:58:58;;;;;;;16.13;8.98;;;20.50;64.90;;;;;;5007785;28;20479;-90
2021/07/06 03:01:24;;;;;;;13.10;8.70;;;20.60;65.20;;;;;;5001330;28;20058;-92
2021/07/06 03:03:50;;;;;;;17.48;8.32;;;20.60;65.30;;;;;;4988786;28;20046;-90
2021/07/06 03:06:16;;;;;;;18.25;9.15;;;20.80;65.70;;;;;;5003898;28;20022;-92
2021/07/06 03:08:42;;;;;;;15.30;8.30;;;21.00;64.20;;;;;;5010402;28;20549;-89
2021/07/06 03:11:08;;;;;;;13.30;7.68;;;21.10;63.80;;;;;;5004022;28;20388;-90
2021/07/06 03:13:33;;;;;;;11.57;8.38;;;21.30;63.30;;;;;;5005298;28;20095;-92
2021/07/06 03:16:00;;;;;;;11.10;7.72;;;21.40;62.40;;;;;;5006005;28;20049;-91
2021/07/06 03:18:26;;;;;;;12.68;7.55;;;21.50;61.30;;;;;;4994663;28;20026;-92
2021/07/06 03:20:52;;;;;;;8.98;7.18;;;21.50;60.90;;;;;;5007312;28;20039;-91
2021/07/06 03:23:19;;;;;;;14.55;8.25;;;21.50;61.10;;;;;;5002621;28;20064;-90
2021/07/06 03:25:50;;;;;;;11.27;7.75;;;21.60;61.60;;;;;;5008871;28;20029;-92
2021/07/06 03:28:16;;;;;;;13.13;7.93;;;21.70;61.20;;;;;;5008686;28;20032;-90
2021/07/06 03:30:42;;;;;;;11.70;7.70;;;21.70;60.70;;;;;;5006992;28;20036;-92
2021/07/06 03:33:09;;;;;;;9.27;6.95;;;21.70;60.00;;;;;;5000453;28;20027;-91
2021/07/06 03:35:36;;;;;;;10.50;7.03;;;21.70;59.80;;;;;;4988174;28;20050;-91
2021/07/06 03:38:02;;;;;;;;;;;21.60;59.80;;;;;;5000916;28;20054;-92
2021/07/06 03:40:29;;;;;;;14.90;7.70;;;21.60;60.10;;;;;;5000171;28;19960;-89
2021/07/06 03:42:55;;;;;;;11.03;6.87;;;21.60;60.20;;;;;;5005520;28;20045;-90
2021/07/06 03:45:22;;;;;;;9.45;7.63;;;21.70;60.60;;;;;;5013391;28;20046;-85
2021/07/06 03:47:48;;;;;;;10.02;7.47;;;21.70;60.00;;;;;;5030973;28;20086;-87
2021/07/06 03:50:18;;;;;;;14.73;8.20;;;21.60;60.80;;;;;;5006746;28;20038;-91
2021/07/06 03:52:49;;;;;;;13.02;7.47;;;21.80;60.80;;;;;;4991884;28;20073;-91
2021/07/06 03:55:16;;;;;;;15.30;7.43;;;21.90;60.10;;;;;;5002744;28;20028;-92
2021/07/06 03:57:43;;;;;;;14.93;8.23;;;22.00;60.00;;;;;;4999843;28;20034;-92
2021/07/06 04:00:12;;;;;;;12.75;7.88;;;22.10;59.50;;;;;;5001251;28;20448;-90
2021/07/06 04:02:39;;;;;;;12.50;7.15;;;22.20;59.40;;;;;;5007678;28;20130;-90
2021/07/06 04:05:09;;;;;;;9.52;6.95;;;22.20;59.20;;;;;;4997442;28;20026;-91
2021/07/06 04:07:35;;;;;;;13.50;7.72;;;22.30;58.70;;;;;;4999337;28;20364;-89
2021/07/06 04:10:04;;;;;;;16.03;7.03;;;22.40;58.80;;;;;;4988993;28;20030;-90
2021/07/06 04:12:30;;;;;;;10.93;6.78;;;22.30;58.40;;;;;;4999168;28;20522;-91
2021/07/06 04:14:56;;;;;;;11.60;7.45;;;22.30;58.60;;;;;;4998936;28;20026;-91
2021/07/06 04:17:22;;;;;;;13.73;7.38;;;22.40;58.50;;;;;;5000522;28;20037;-91
2021/07/06 04:19:47;;;;;;;13.10;7.32;;;22.50;58.70;;;;;;4997802;28;20026;-91
2021/07/06 04:22:13;;;;;;;14.57;8.80;;;22.70;58.10;;;;;;4994889;28;20042;-89
2021/07/06 04:24:39;;;;;;;26.90;8.85;;;22.80;57.60;;;;;;4997320;28;20048;-91
2021/07/06 04:27:05;;;;;;;11.85;7.30;;;22.80;57.60;;;;;;4994997;28;20527;-89
2021/07/06 04:29:31;;;;;;;12.90;7.50;;;22.80;57.20;;;;;;4984372;28;20038;-89
2021/07/06 04:32:00;;;;;;;12.60;6.97;;;22.90;57.50;;;;;;4994046;28;20023;-91
2021/07/06 04:34:26;;;;;;;16.10;7.72;;;22.80;57.00;;;;;;4977242;28;20023;-91
2021/07/06 04:36:52;;;;;;;11.32;7.00;;;22.90;57.20;;;;;;4997714;28;20076;-92
2021/07/06 04:39:19;;;;;;;13.90;7.68;;;22.90;57.40;;;;;;5006663;28;20019;-91
2021/07/06 04:41:46;;;;;;;11.05;7.07;;;23.00;56.90;;;;;;4998017;28;20061;-91
2021/07/06 04:44:12;;;;;;;10.07;6.43;;;23.10;57.30;;;;;;4997175;28;20381;-92
2021/07/06 04:46:39;;;;;;;16.48;7.07;;;23.20;56.20;;;;;;4996652;28;20030;-91
2021/07/06 04:49:04;;;;;;;9.65;6.18;;;23.20;55.60;;;;;;4983962;28;20162;-92
2021/07/06 04:51:32;;;;;;;13.07;6.75;;;23.30;55.60;;;;;;4997696;28;20062;-92
2021/07/06 04:53:57;;;;;;;;;;;23.20;55.30;;;;;;4980358;28;20073;-92
2021/07/06 04:56:25;;;;;;;10.82;6.25;;;23.20;55.40;;;;;;5001398;28;19906;-91
2021/07/06 04:58:53;;;;;;;8.68;6.13;;;23.10;55.20;;;;;;4998584;28;20057;-94
2021/07/06 05:01:19;;;;;;;9.85;7.35;;;23.20;55.30;;;;;;5000354;28;20025;-88
2021/07/06 05:03:47;;;;;;;11.40;6.47;;;23.30;55.80;;;;;;4998112;28;20034;-89
2021/07/06 05:06:12;;;;;;;;;;;23.50;55.30;;;;;;4996869;28;20022;-88
2021/07/06 05:08:39;;;;;;;9.70;5.65;;;23.60;55.10;;;;;;4998754;28;19910;-88
2021/07/06 05:11:05;;;;;;;8.43;5.43;;;23.70;54.00;;;;;;4997571;28;20053;-89
2021/07/06 05:13:32;;;;;;;10.18;6.97;;;23.70;53.20;;;;;;4999558;28;20050;-90
2021/07/06 05:15:58;;;;;;;12.98;6.68;;;24.10;52.60;;;;;;5009436;28;20011;-87
2021/07/06 05:18:24;;;;;;;12.60;6.38;;;24.70;51.10;;;;;;4998482;28;20019;-91
2021/07/06 05:20:49;;;;;;;8.90;6.30;;;25.40;49.90;;;;;;5006284;28;20030;-89
2021/07/06 05:23:17;;;;;;;9.05;6.38;;;26.50;48.30;;;;;;4997187;28;20109;-91
2021/07/06 05:25:43;;;;;;;6.75;6.00;;;27.60;46.40;;;;;;4994996;28;20031;-86
2021/07/06 05:28:08;;;;;;;7.88;6.75;;;28.90;43.40;;;;;;4996449;28;20424;-90
2021/07/06 05:30:34;;;;;;;11.57;6.32;;;29.80;42.20;;;;;;4998394;28;20022;-92
2021/07/06 05:33:00;;;;;;;6.57;5.95;;;29.70;40.90;;;;;;5012561;28;20026;-92
2021/07/06 05:35:26;;;;;;;9.68;5.78;;;29.90;40.40;;;;;;5011649;28;20387;-89
2021/07/06 05:37:52;;;;;;;7.47;5.82;;;30.00;40.10;;;;;;5000763;28;20037;-89
2021/07/06 05:40:17;;;;;;;10.10;5.70;;;30.00;40.20;;;;;;4995251;28;20057;-88
2021/07/06 05:42:44;;;;;;;8.77;6.13;;;30.50;39.60;;;;;;4989723;28;20034;-88
2021/07/06 05:45:10;;;;;;;12.82;6.13;;;31.30;39.10;;;;;;4999396;28;20041;-89
2021/07/06 05:47:38;;;;;;;14.70;6.28;;;32.30;37.60;;;;;;5001313;28;20096;-90
2021/07/06 05:50:12;;;;;;;13.68;6.53;;;33.20;36.50;;;;;;5001897;28;20037;-87
2021/07/06 05:52:38;;;;;;;14.45;6.35;;;34.10;35.60;;;;;;5004563;28;20072;-87
2021/07/06 05:55:06;;;;;;;10.90;6.13;;;34.90;34.40;;;;;;5011990;28;20022;-89
2021/07/06 05:57:32;;;;;;;9.57;6.10;;;35.40;33.40;;;;;;5006435;28;20026;-91
2021/07/06 05:59:58;;;;;;;10.70;5.30;;;35.70;32.30;;;;;;5005916;28;20098;-91
2021/07/06 06:02:24;;;;;;;;;;;35.40;32.30;;;;;;5002143;28;20491;-90
2021/07/06 06:04:50;;;;;;;8.45;6.72;;;34.80;33.40;;;;;;5003178;28;19913;-88
2021/07/06 06:07:16;;;;;;;9.43;4.90;;;34.50;33.10;;;;;;5007389;28;20026;-89
2021/07/06 06:09:42;;;;;;;9.70;6.17;;;34.00;32.90;;;;;;4989373;28;20039;-91
2021/07/06 06:12:12;;;;;;;8.40;5.93;;;34.00;33.30;;;;;;4978532;28;20064;-88
2021/07/06 06:14:39;;;;;;;7.10;5.10;;;34.40;33.10;;;;;;4995083;28;20035;-91
2021/07/06 06:17:05;;;;;;;10.85;5.32;;;34.30;32.00;;;;;;4995959;28;20061;-91
2021/07/06 06:19:31;;;;;;;11.87;5.83;;;34.90;32.30;;;;;;4998382;28;20034;-90
2021/07/06 06:21:57;;;;;;;12.60;5.35;;;35.90;32.00;;;;;;4999526;28;20064;-88
2021/07/06 06:24:23;;;;;;;8.63;5.60;;;36.40;30.50;;;;;;4996397;28;20054;-90
2021/07/06 06:26:49;;;;;;;8.95;5.45;;;36.40;30.60;;;;;;4999864;28;20022;-92
2021/07/06 06:29:16;;;;;;;9.63;5.60;;;36.20;30.50;;;;;;5000787;28;20065;-90
2021/07/06 06:31:42;;;;;;;6.03;4.95;;;36.10;30.60;;;;;;5003149;28;20038;-90
2021/07/06 06:34:08;;;;;;;10.53;5.87;;;35.10;31.00;;;;;;5008458;28;20026;-89
2021/07/06 06:36:33;;;;;;;13.80;5.70;;;35.30;31.70;;;;;;5007578;28;20025;-88
2021/07/06 06:39:01;;;;;;;6.23;5.03;;;36.30;30.10;;;;;;5009899;28;20029;-91
2021/07/06 06:41:27;;;;;;;8.43;6.13;;;36.30;30.40;;;;;;5006180;28;20153;-92
2021/07/06 06:43:53;;;;;;;7.63;5.60;;;37.20;29.90;;;;;;5004862;28;20033;-92
2021/07/06 06:46:21;;;;;;;11.18;6.15;;;38.70;29.50;;;;;;5003467;28;20197;-90
2021/07/06 06:48:48;;;;;;;7.10;5.30;;;39.50;28.50;;;;;;5001292;28;20067;-90
2021/07/06 06:51:14;;;;;;;;;;;39.20;28.10;;;;;;4988656;28;20057;-93
2021/07/06 06:53:41;;;;;;;8.75;5.45;;;38.60;29.50;;;;;;5002582;28;19906;-89
2021/07/06 06:56:06;;;;;;;8.68;6.03;;;39.70;28.30;;;;;;5003372;28;20023;-90
2021/07/06 06:58:32;;;;;;;8.43;5.35;;;41.00;27.90;;;;;;5000810;28;20030;-90
2021/07/06 07:00:58;;;;;;;8.18;5.57;;;42.10;27.20;;;;;;5001872;28;20042;-92
2021/07/06 07:03:24;;;;;;;10.15;6.13;;;41.80;26.40;;;;;;5004582;28;20496;-92
2021/07/06 07:05:52;;;;;;;7.45;4.93;;;41.20;26.80;;;;;;4988282;28;20031;-91
2021/07/06 07:08:18;;;;;;;9.38;5.47;;;41.10;27.10;;;;;;5008627;28;20022;-90
2021/07/06 07:10:46;;;;;;;8.20;5.35;;;40.70;27.10;;;;;;4998775;28;20022;-90
2021/07/06 07:13:12;;;;;;;8.40;4.97;;;40.10;27.40;;;;;;5005935;28;20116;-91
2021/07/06 07:15:38;;;;;;;7.97;5.50;;;39.90;27.70;;;;;;5002579;28;20023;-92
2021/07/06 07:18:04;;;;;;;8.45;5.90;;;39.80;27.70;;;;;;4996344;28;20027;-89
2021/07/06 07:20:30;;;;;;;;;;;41.10;27.60;;;;;;5003514;28;20026;-93
2021/07/06 07:22:56;;;;;;;8.18;5.32;;;42.60;27.90;;;;;;5012244;28;19928;-90
2021/07/06 07:25:21;;;;;;;;;;;43.60;26.70;;;;;;5011804;28;20027;-92
2021/07/06 07:27:48;;;;;;;6.90;5.30;;;44.20;27.00;;;;;;5008462;28;19906;-91
2021/07/06 07:30:16;;;;;;;7.85;5.57;;;44.10;25.80;;;;;;5000534;28;20069;-88
2021/07/06 07:32:42;;;;;;;7.85;5.68;;;44.10;32.10;;;;;;5011684;28;20026;-86
2021/07/06 07:35:09;;;;;;;5.47;4.55;;;43.80;31.60;;;;;;5013893;28;20050;-91
2021/07/06 07:37:35;;;;;;;7.68;5.68;;;43.20;25.60;;;;;;5015997;28;20030;-87
2021/07/06 07:40:01;;;;;;;;;;;42.70;25.80;;;;;;5011502;28;20037;-89
2021/07/06 07:42:26;;;;;;;8.80;5.53;;;41.40;26.80;;;;;;5003974;28;20367;-86
2021/07/06 07:44:52;;;;;;;;;;;41.50;26.80;;;;;;5001527;28;20101;-86
2021/07/06 07:47:18;;;;;;;6.65;4.80;;;41.10;26.60;;;;;;4994824;28;20406;-89
2021/07/06 07:49:44;;;;;;;;;;;39.90;26.90;;;;;;4990545;28;20041;-88
2021/07/06 07:52:09;;;;;;;7.05;5.68;;;39.90;28.10;;;;;;4997715;28;19906;-89
2021/07/06 07:54:36;;;;;;;14.10;5.95;;;40.00;27.10;;;;;;4999812;28;20040;-87
2021/07/06 07:57:03;;;;;;;9.00;5.68;;;40.30;27.40;;;;;;4998866;28;20050;-86
2021/07/06 07:59:30;;;;;;;7.22;5.00;;;40.90;27.10;;;;;;4996449;28;20069;-82
2021/07/06 08:01:57;;;;;;;7.93;5.30;;;41.20;26.70;;;;;;5000185;28;20054;-82
2021/07/06 08:04:23;;;;;;;9.30;4.75;;;42.00;26.40;;;;;;4998967;28;20023;-86
2021/07/06 08:06:48;;;;;;;;;;;42.20;26.10;;;;;;4997596;28;20026;-82
2021/07/06 08:09:14;;;;;;;6.82;5.13;;;41.50;26.40;;;;;;4994013;28;19960;-85
2021/07/06 08:11:40;;;;;;;;;;;41.90;26.40;;;;;;4996545;28;20054;-82
2021/07/06 08:14:05;;;;;;;7.35;5.63;;;42.20;26.80;;;;;;4995507;28;20342;-83
2021/07/06 08:16:33;;;;;;;;;;;43.00;25.90;;;;;;4994088;28;20442;-89
2021/07/06 08:18:59;;;;;;;7.13;5.82;;;42.80;25.90;;;;;;4994044;28;20399;-82
2021/07/06 08:21:25;;;;;;;;;;;41.00;26.40;;;;;;4991763;28;20055;-85
2021/07/06 08:23:51;;;;;;;7.60;5.05;;;41.30;27.40;;;;;;4998354;28;19906;-87
2021/07/06 08:26:17;;;;;;;;;;;41.40;26.60;;;;;;4999125;28;20022;-84
2021/07/06 08:28:45;;;;;;;9.40;5.28;;;40.90;26.70;;;;;;4984309;28;20000;-86
2021/07/06 08:31:11;;;;;;;8.98;5.47;;;40.20;27.00;;;;;;4994542;28;20030;-86
2021/07/06 08:33:37;;;;;;;11.02;5.75;;;39.60;27.10;;;;;;4995441;28;20107;-86
2021/07/06 08:36:03;;;;;;;;;;;39.90;27.30;;;;;;4991875;28;20038;-87
2021/07/06 08:38:30;;;;;;;12.40;5.88;;;40.90;27.00;;;;;;4994259;28;19920;-86
2021/07/06 08:40:56;;;;;;;5.93;5.28;;;41.70;26.00;;;;;;4993737;28;20102;-83
2021/07/06 08:43:21;;;;;;;;;;;40.90;25.50;;;;;;4993738;28;20164;-84
2021/07/06 08:45:47;;;;;;;5.82;5.18;;;40.30;26.20;;;;;;4993795;28;19917;-85
2021/07/06 08:48:14;;;;;;;;;;;39.70;26.30;;;;;;4999916;28;20409;-85
2021/07/06 08:50:41;;;;;;;7.53;5.25;;;40.30;26.70;;;;;;4995352;28;20351;-86
2021/07/06 08:53:07;;;;;;;7.95;5.25;;;39.70;26.40;;;;;;4997203;28;20035;-85
2021/07/06 08:55:33;;;;;;;6.18;5.55;;;39.40;26.80;;;;;;4997157;28;20031;-90
2021/07/06 08:57:59;;;;;;;8.73;6.13;;;40.30;26.70;;;;;;4996072;28;20069;-86
2021/07/06 09:00:29;;;;;;;6.30;5.70;;;41.50;26.20;;;;;;4998563;28;20026;-92
2021/07/06 09:02:57;;;;;;;5.75;5.25;;;40.60;26.20;;;;;;4997619;28;20050;-88
2021/07/06 09:05:23;;;;;;;9.32;6.50;;;40.20;26.30;;;;;;4998325;28;20542;-91
2021/07/06 09:07:50;;;;;;;9.52;5.70;;;40.20;26.40;;;;;;4998692;28;20065;-88
2021/07/06 09:10:19;;;;;;;9.95;6.00;;;41.00;25.80;;;;;;4995028;28;20027;-87
2021/07/06 09:12:46;;;;;;;6.25;5.65;;;40.30;26.00;;;;;;4993961;28;20050;-87
2021/07/06 09:15:19;;;;;;;7.18;5.20;;;40.40;26.30;;;;;;4992448;28;20022;-83
2021/07/06 09:17:45;;;;;;;8.00;5.55;;;40.50;26.20;;;;;;4994830;28;20030;-87
2021/07/06 09:20:11;;;;;;;8.63;6.63;;;41.10;26.30;;;;;;4997082;28;20094;-85
2021/07/06 09:22:37;;;;;;;9.50;6.75;;;40.80;26.00;;;;;;4997766;28;20104;-84
2021/07/06 09:25:05;;;;;;;;;;;40.70;25.80;;;;;;4998404;28;20017;-86
2021/07/06 09:27:34;;;;;;;8.57;6.32;;;40.90;26.40;;;;;;5002138;28;19910;-87
2021/07/06 09:30:14;;;;;;;5.82;5.18;;;41.40;25.70;;;;;;4994654;28;20488;-85
2021/07/06 09:32:59;;;;;;;10.27;6.10;;;41.80;25.30;;;;;;4988657;28;20165;-85
2021/07/06 09:35:28;;;;;;;8.95;5.10;;;40.90;25.40;;;;;;4999882;28;20059;-85
2021/07/06 09:38:02;;;;;;;16.65;5.15;;;40.30;25.80;;;;;;4999646;28;20061;-84
2021/07/06 09:40:33;;;;;;;7.30;5.43;;;39.90;25.90;;;;;;5000150;28;20026;-85
2021/07/06 09:43:20;;;;;;;6.90;5.40;;;39.60;26.00;;;;;;4999456;28;20147;-89
2021/07/06 09:46:04;;;;;;;8.88;5.15;;;39.90;25.90;;;;;;4998706;28;20057;-82
2021/07/06 09:48:32;;;;;;;6.63;5.30;;;40.40;25.70;;;;;;4996829;28;20021;-83
2021/07/06 09:51:25;;;;;;;5.88;4.80;;;40.40;25.10;;;;;;4982990;28;20023;-82
2021/07/06 09:53:55;;;;;;;7.03;4.90;;;40.80;25.40;;;;;;4997231;28;20033;-84
2021/07/06 09:56:27;;;;;;;7.60;5.50;;;41.70;25.90;;;;;;4998081;28;20018;-83
2021/07/06 09:59:03;;;;;;;7.68;4.65;;;42.60;25.20;;;;;;4996926;28;20387;-85
2021/07/06 10:01:30;;;;;;;5.57;4.50;;;42.20;25.00;;;;;;4994736;28;20411;-82
2021/07/06 10:03:57;;;;;;;5.18;4.68;;;41.70;24.80;;;;;;4999874;28;20101;-83
2021/07/06 10:06:25;;;;;;;12.05;5.03;;;41.70;24.90;;;;;;4999451;28;20023;-85
2021/07/06 10:08:52;;;;;;;6.00;5.10;;;40.60;25.20;;;;;;4998394;28;20530;-85
2021/07/06 10:11:19;;;;;;;6.00;5.13;;;40.10;25.90;;;;;;4998495;28;20076;-88
2021/07/06 10:13:45;;;;;;;8.15;5.18;;;41.30;25.40;;;;;;4996527;28;20061;-88
2021/07/06 10:16:14;;;;;;;8.00;5.85;;;41.80;25.00;;;;;;4998298;28;20097;-88
2021/07/06 10:18:40;;;;;;;8.80;4.82;;;41.90;25.20;;;;;;4996442;28;20142;-84
2021/07/06 10:21:06;;;;;;;;;;;40.80;25.30;;;;;;5001212;28;20058;-90
2021/07/06 10:23:38;;;;;;;7.20;4.95;;;40.90;25.80;;;;;;4996853;28;20015;-85
2021/07/06 10:26:06;;;;;;;6.85;4.72;;;41.20;25.20;;;;;;5000759;28;20030;-86
2021/07/06 10:28:32;;;;;;;6.18;4.60;;;41.80;25.40;;;;;;4997664;28;20105;-85
2021/07/06 10:31:15;;;;;;;8.02;5.53;;;42.80;24.80;;;;;;4995423;28;20097;-86
2021/07/06 10:33:42;;;;;;;6.28;5.45;;;43.50;24.60;;;;;;4980879;28;20078;-86
2021/07/06 10:36:11;;;;;;;9.82;5.68;;;42.60;25.00;;;;;;4996295;28;20073;-84
2021/07/06 10:38:40;;;;;;;10.95;5.82;;;40.80;25.50;;;;;;4996409;28;20049;-85
2021/07/06 10:41:35;;;;;;;8.93;5.53;;;38.60;26.10;;;;;;4997990;28;20015;-86
2021/07/06 10:44:02;;;;;;;5.97;5.38;;;35.90;27.00;;;;;;4999900;28;20030;-87
2021/07/06 10:46:43;;;;;;;10.35;6.38;;;33.70;28.90;;;;;;5001837;28;20415;-83
2021/07/06 10:49:25;;;;;;;7.60;6.25;;;32.30;30.50;;;;;;4982403;28;20455;-87
2021/07/06 10:51:53;;;;;;;7.50;6.50;;;31.50;32.50;;;;;;4996741;28;20090;-86
2021/07/06 10:54:26;;;;;;;13.15;6.38;;;;;;;;;;4997418;28;20014;-87
2021/07/06 10:56:55;;;;;;;10.18;7.03;;;;;;;;;;4997332;28;20501;-86
2021/07/06 10:59:24;;;;;;;9.98;6.82;;;;;;;;;;4997701;28;20027;-86
2021/07/06 11:01:50;;;;;;;10.77;7.30;;;30.90;32.90;;;;;;4996756;28;20069;-82
2021/07/06 11:04:45;;;;;;;11.57;6.90;;;29.70;35.10;;;;;;4993766;28;20027;-82
2021/07/06 11:07:12;;;;;;;9.25;6.15;;;;;;;;;;4995220;28;20054;-83
2021/07/06 11:09:38;;;;;;;6.88;5.35;;;;;;;;;;4994989;28;20073;-83
2021/07/06 11:12:21;;;;;;;15.10;6.90;;;29.50;35.60;;;;;;4993564;28;20038;-83
2021/07/06 11:14:51;;;;;;;8.90;7.65;;;;;;;;;;4992953;28;20046;-87
2021/07/06 11:17:35;;;;;;;9.05;6.30;;;28.90;35.00;;;;;;4994959;28;20022;-83
2021/07/06 11:20:05;;;;;;;7.88;5.90;;;28.90;35.20;;;;;;4993636;28;20018;-80
2021/07/06 11:22:50;;;;;;;17.25;6.95;;;28.90;35.70;;;;;;4994354;28;20069;-82
2021/07/06 11:25:25;;;;;;;6.93;6.18;;;28.60;36.30;;;;;;4982790;28;20077;-84
2021/07/06 11:28:14;;;;;;;9.05;6.30;;;28.30;36.50;;;;;;4994752;28;20134;-81
2021/07/06 11:30:52;;;;;;;10.90;7.28;;;28.20;37.50;;;;;;4986628;28;20022;-86
2021/07/06 11:33:24;;;;;;;9.07;6.75;;;28.20;37.80;;;;;;4993046;28;20034;-85
2021/07/06 11:35:56;;;;;;;8.02;5.65;;;28.20;37.00;;;;;;4987242;28;20070;-87
2021/07/06 11:38:30;;;;;;;11.32;5.65;;;28.20;35.10;;;;;;4992334;28;20069;-85
2021/07/06 11:40:58;;;;;;;6.55;5.88;;;28.10;36.00;;;;;;4995886;28;20041;-82
2021/07/06 11:43:26;;;;;;;8.18;5.72;;;28.20;36.10;;;;;;4996592;28;20467;-88
2021/07/06 11:46:03;;;;;;;8.55;6.57;;;28.20;36.30;;;;;;4999199;28;20037;-85
2021/07/06 11:48:34;;;;;;;8.50;6.05;;;28.10;36.80;;;;;;4997839;28;20022;-85
2021/07/06 11:51:05;;;;;;;8.52;5.97;;;28.10;37.50;;;;;;4997511;28;20109;-83
2021/07/06 11:53:34;;;;;;;8.98;5.40;;;28.00;37.40;;;;;;4994402;28;20506;-84
2021/07/06 11:56:01;;;;;;;7.85;5.90;;;28.00;35.70;;;;;;4994916;28;20026;-85
2021/07/06 11:58:30;;;;;;;6.32;5.53;;;27.90;36.30;;;;;;4994719;28;20019;-86
2021/07/06 12:01:01;;;;;;;11.73;7.13;;;27.90;36.10;;;;;;4994898;28;20480;-82
2021/07/06 12:03:29;;;;;;;13.52;6.45;;;28.00;37.50;;;;;;4999834;28;20034;-89
2021/07/06 12:06:03;;;;;;;9.10;6.53;;;27.90;37.90;;;;;;5000764;28;20383;-89
2021/07/06 12:08:36;;;;;;;10.10;6.15;;;27.90;36.20;;;;;;4998770;28;20018;-90
2021/07/06 12:11:05;;;;;;;7.18;5.03;;;27.90;35.90;;;;;;4996902;28;20046;-84
2021/07/06 12:13:55;;;;;;;15.02;5.50;;;27.80;35.00;;;;;;4994770;28;20046;-84
2021/07/06 12:16:21;;;;;;;6.78;4.90;;;27.80;33.60;;;;;;4996310;28;20118;-83
2021/07/06 12:19:00;;;;;;;7.68;5.50;;;27.70;32.30;;;;;;5002768;28;20025;-83
2021/07/06 12:21:31;;;;;;;7.38;5.53;;;27.70;34.50;;;;;;5005191;28;20042;-86
2021/07/06 12:23:58;;;;;;;6.30;4.50;;;27.60;34.70;;;;;;5001765;28;20030;-82
2021/07/06 12:26:26;;;;;;;6.50;5.43;;;27.60;33.20;;;;;;4997284;28;20747;-84
2021/07/06 12:28:52;;;;;;;8.05;5.63;;;27.60;35.40;;;;;;4995876;28;20033;-85
2021/07/06 12:31:32;;;;;;;8.82;5.53;;;27.50;37.00;;;;;;5001091;28;20022;-86
2021/07/06 12:34:08;;;;;;;6.60;5.47;;;27.50;36.40;;;;;;4990873;28;20026;-84
2021/07/06 12:36:38;;;;;;;9.43;6.53;;;27.40;35.90;;;;;;4997014;28;20033;-86
2021/07/06 12:39:25;;;;;;;10.38;6.30;;;27.40;37.40;;;;;;4998198;28;20105;-83
2021/07/06 12:41:59;;;;;;;9.77;6.47;;;27.50;37.50;;;;;;4995630;28;20034;-83
2021/07/06 12:44:31;;;;;;;7.93;5.72;;;27.60;37.60;;;;;;4998737;28;20436;-88
2021/07/06 12:47:18;;;;;;;11.43;6.50;;;27.60;36.80;;;;;;4997882;28;20484;-85
2021/07/06 12:49:57;;;;;;;8.63;6.15;;;27.60;36.90;;;;;;4995265;28;20058;-86
2021/07/06 12:52:50;;;;;;;5.90;5.30;;;27.60;36.90;;;;;;4994430;28;20041;-86
2021/07/06 12:55:22;;;;;;;7.57;4.95;;;27.60;34.90;;;;;;5002914;28;20045;-87
2021/07/06 12:58:05;;;;;;;6.07;4.95;;;27.60;33.90;;;;;;4988741;28;20046;-84